Christine, Texas
Current Conditions -  °F | °C
As of 1:15 PM on Thursday 30 Oct 2014 (Local Time) from KPEZ Reporting Station
Clear Clear  
Wind Chill: 82°   Ceiling: Unl
Heat Index: 83°   Visibility: 10mi
Dew Point: 63°   Wind: 3mph
Humidity: 53%   Direction: 50°NE
Pressure: 30.1"   Gusts: NA
Location:  28.79°N, 98.5°W
Report Text: KPEZ 301815Z AUTO 05003KT 10SM CLR 28/17 A3010 RMK AO2 T02770172
Loading
Personal Weather Stations






























Interactive Weather Map New forecast layout! Learn more

10-Day Weather Forecast

Advertisements
Track Severe Weather on mobile